sensor_id;sensor_type;location;lat;lon;timestamp;P1;durP1;ratioP1;P2;durP2;ratioP2
12165;SDS011;6146;48.128;11.476;2023-11-18T00:00:22;9.70;;;8.47;;
12165;SDS011;6146;48.128;11.476;2023-11-18T00:02:48;8.80;;;7.83;;
12165;SDS011;6146;48.128;11.476;2023-11-18T00:05:14;9.37;;;7.97;;
12165;SDS011;6146;48.128;11.476;2023-11-18T00:07:40;7.67;;;6.80;;
12165;SDS011;6146;48.128;11.476;2023-11-18T00:10:07;8.67;;;7.70;;
12165;SDS011;6146;48.128;11.476;2023-11-18T00:12:33;9.27;;;7.13;;
12165;SDS011;6146;48.128;11.476;2023-11-18T00:15:00;7.90;;;7.07;;
12165;SDS011;6146;48.128;11.476;2023-11-18T00:17:28;7.47;;;6.40;;
12165;SDS011;6146;48.128;11.476;2023-11-18T00:19:57;8.17;;;6.97;;
12165;SDS011;6146;48.128;11.476;2023-11-18T00:22:23;7.00;;;6.30;;
12165;SDS011;6146;48.128;11.476;2023-11-18T00:24:48;7.23;;;6.40;;
12165;SDS011;6146;48.128;11.476;2023-11-18T00:27:14;5.90;;;5.30;;
12165;SDS011;6146;48.128;11.476;2023-11-18T00:29:40;5.83;;;5.23;;
12165;SDS011;6146;48.128;11.476;2023-11-18T00:32:06;5.80;;;5.20;;
12165;SDS011;6146;48.128;11.476;2023-11-18T00:34:32;5.93;;;5.43;;
12165;SDS011;6146;48.128;11.476;2023-11-18T00:36:58;6.43;;;5.53;;
12165;SDS011;6146;48.128;11.476;2023-11-18T00:39:24;5.23;;;4.77;;
12165;SDS011;6146;48.128;11.476;2023-11-18T00:41:50;4.90;;;4.40;;
12165;SDS011;6146;48.128;11.476;2023-11-18T00:44:15;5.07;;;4.57;;
12165;SDS011;6146;48.128;11.476;2023-11-18T00:46:41;4.63;;;4.13;;
12165;SDS011;6146;48.128;11.476;2023-11-18T00:49:07;5.53;;;5.03;;
12165;SDS011;6146;48.128;11.476;2023-11-18T00:51:32;5.17;;;4.67;;
12165;SDS011;6146;48.128;11.476;2023-11-18T00:53:58;4.87;;;4.37;;
12165;SDS011;6146;48.128;11.476;2023-11-18T00:56:25;4.87;;;4.07;;
12165;SDS011;6146;48.128;11.476;2023-11-18T00:58:51;4.27;;;3.87;;
12165;SDS011;6146;48.128;11.476;2023-11-18T01:01:17;4.20;;;3.73;;
12165;SDS011;6146;48.128;11.476;2023-11-18T01:03:46;4.10;;;3.70;;
12165;SDS011;6146;48.128;11.476;2023-11-18T01:06:12;4.03;;;3.63;;
12165;SDS011;6146;48.128;11.476;2023-11-18T01:08:40;4.13;;;3.73;;
12165;SDS011;6146;48.128;11.476;2023-11-18T01:11:09;4.10;;;3.70;;
12165;SDS011;6146;48.128;11.476;2023-11-18T01:13:34;3.43;;;3.10;;
12165;SDS011;6146;48.128;11.476;2023-11-18T01:16:00;3.97;;;3.50;;
12165;SDS011;6146;48.128;11.476;2023-11-18T01:18:27;6.03;;;3.77;;
12165;SDS011;6146;48.128;11.476;2023-11-18T01:20:52;4.10;;;3.70;;
12165;SDS011;6146;48.128;11.476;2023-11-18T01:23:18;3.40;;;3.10;;
12165;SDS011;6146;48.128;11.476;2023-11-18T01:25:44;3.63;;;3.33;;
12165;SDS011;6146;48.128;11.476;2023-11-18T01:28:09;3.70;;;3.27;;
12165;SDS011;6146;48.128;11.476;2023-11-18T01:30:35;3.10;;;2.80;;
12165;SDS011;6146;48.128;11.476;2023-11-18T01:33:01;3.10;;;2.80;;
12165;SDS011;6146;48.128;11.476;2023-11-18T01:35:27;3.40;;;3.10;;
12165;SDS011;6146;48.128;11.476;2023-11-18T01:37:53;3.50;;;3.20;;
12165;SDS011;6146;48.128;11.476;2023-11-18T01:40:22;3.60;;;2.97;;
12165;SDS011;6146;48.128;11.476;2023-11-18T01:42:48;3.47;;;3.03;;
12165;SDS011;6146;48.128;11.476;2023-11-18T01:45:15;3.40;;;3.10;;
12165;SDS011;6146;48.128;11.476;2023-11-18T01:47:44;3.83;;;3.10;;
12165;SDS011;6146;48.128;11.476;2023-11-18T01:50:13;3.33;;;2.87;;
12165;SDS011;6146;48.128;11.476;2023-11-18T01:52:40;3.50;;;3.20;;
12165;SDS011;6146;48.128;11.476;2023-11-18T01:55:06;3.40;;;3.10;;
12165;SDS011;6146;48.128;11.476;2023-11-18T01:57:33;3.70;;;3.30;;
12165;SDS011;6146;48.128;11.476;2023-11-18T01:59:59;4.27;;;3.30;;
12165;SDS011;6146;48.128;11.476;2023-11-18T02:02:30;3.60;;;3.17;;
12165;SDS011;6146;48.128;11.476;2023-11-18T02:04:56;3.67;;;3.37;;
12165;SDS011;6146;48.128;11.476;2023-11-18T02:07:21;3.87;;;3.47;;
12165;SDS011;6146;48.128;11.476;2023-11-18T02:09:49;3.60;;;3.27;;
12165;SDS011;6146;48.128;11.476;2023-11-18T02:14:48;3.67;;;3.10;;
12165;SDS011;6146;48.128;11.476;2023-11-18T02:17:14;3.40;;;3.10;;
12165;SDS011;6146;48.128;11.476;2023-11-18T02:19:45;3.53;;;3.23;;
12165;SDS011;6146;48.128;11.476;2023-11-18T02:22:10;4.33;;;3.40;;
12165;SDS011;6146;48.128;11.476;2023-11-18T02:24:38;4.43;;;3.67;;
12165;SDS011;6146;48.128;11.476;2023-11-18T02:27:06;3.90;;;3.50;;
12165;SDS011;6146;48.128;11.476;2023-11-18T02:29:35;3.60;;;3.30;;
12165;SDS011;6146;48.128;11.476;2023-11-18T02:32:11;4.63;;;3.53;;
12165;SDS011;6146;48.128;11.476;2023-11-18T02:35:02;5.27;;;3.40;;
12165;SDS011;6146;48.128;11.476;2023-11-18T02:37:30;3.90;;;3.50;;
12165;SDS011;6146;48.128;11.476;2023-11-18T02:40:00;3.70;;;3.40;;
12165;SDS011;6146;48.128;11.476;2023-11-18T02:42:33;3.90;;;3.50;;
12165;SDS011;6146;48.128;11.476;2023-11-18T02:45:01;4.63;;;4.00;;
12165;SDS011;6146;48.128;11.476;2023-11-18T02:47:27;3.17;;;2.87;;
12165;SDS011;6146;48.128;11.476;2023-11-18T02:49:53;3.60;;;3.30;;
12165;SDS011;6146;48.128;11.476;2023-11-18T02:52:21;3.50;;;3.20;;
12165;SDS011;6146;48.128;11.476;2023-11-18T02:54:47;4.13;;;3.73;;
12165;SDS011;6146;48.128;11.476;2023-11-18T02:57:13;3.80;;;3.40;;
12165;SDS011;6146;48.128;11.476;2023-11-18T02:59:38;3.67;;;3.27;;
12165;SDS011;6146;48.128;11.476;2023-11-18T03:02:04;3.33;;;3.03;;
12165;SDS011;6146;48.128;11.476;2023-11-18T03:04:31;3.67;;;3.23;;
12165;SDS011;6146;48.128;11.476;2023-11-18T03:06:56;4.80;;;3.37;;
12165;SDS011;6146;48.128;11.476;2023-11-18T03:09:22;3.70;;;3.40;;
12165;SDS011;6146;48.128;11.476;2023-11-18T03:11:52;3.70;;;3.33;;
12165;SDS011;6146;48.128;11.476;2023-11-18T03:14:19;4.97;;;4.27;;
12165;SDS011;6146;48.128;11.476;2023-11-18T03:16:45;3.60;;;3.30;;
12165;SDS011;6146;48.128;11.476;2023-11-18T03:19:11;4.30;;;3.90;;
12165;SDS011;6146;48.128;11.476;2023-11-18T03:21:38;4.40;;;4.00;;
12165;SDS011;6146;48.128;11.476;2023-11-18T03:24:04;4.10;;;3.60;;
12165;SDS011;6146;48.128;11.476;2023-11-18T03:26:30;4.27;;;3.87;;
12165;SDS011;6146;48.128;11.476;2023-11-18T03:28:57;4.53;;;4.13;;
12165;SDS011;6146;48.128;11.476;2023-11-18T03:31:22;4.37;;;3.93;;
12165;SDS011;6146;48.128;11.476;2023-11-18T03:33:48;3.73;;;3.27;;
12165;SDS011;6146;48.128;11.476;2023-11-18T03:36:13;5.23;;;4.00;;
12165;SDS011;6146;48.128;11.476;2023-11-18T03:38:41;8.87;;;6.57;;
12165;SDS011;6146;48.128;11.476;2023-11-18T03:41:07;5.00;;;3.80;;
12165;SDS011;6146;48.128;11.476;2023-11-18T03:43:33;4.33;;;3.73;;
12165;SDS011;6146;48.128;11.476;2023-11-18T03:45:59;4.10;;;3.70;;
12165;SDS011;6146;48.128;11.476;2023-11-18T03:48:24;4.97;;;4.47;;
12165;SDS011;6146;48.128;11.476;2023-11-18T03:50:50;4.83;;;4.33;;
12165;SDS011;6146;48.128;11.476;2023-11-18T03:53:15;4.50;;;4.10;;
12165;SDS011;6146;48.128;11.476;2023-11-18T03:55:41;5.23;;;4.73;;
12165;SDS011;6146;48.128;11.476;2023-11-18T03:58:06;5.77;;;4.93;;
12165;SDS011;6146;48.128;11.476;2023-11-18T04:00:33;5.60;;;5.10;;
12165;SDS011;6146;48.128;11.476;2023-11-18T04:02:59;5.30;;;4.73;;
12165;SDS011;6146;48.128;11.476;2023-11-18T04:05:25;5.50;;;4.80;;
12165;SDS011;6146;48.128;11.476;2023-11-18T04:07:50;5.67;;;5.07;;
12165;SDS011;6146;48.128;11.476;2023-11-18T04:10:16;5.20;;;4.70;;
12165;SDS011;6146;48.128;11.476;2023-11-18T04:12:43;5.53;;;4.90;;
12165;SDS011;6146;48.128;11.476;2023-11-18T04:15:12;5.27;;;4.77;;
12165;SDS011;6146;48.128;11.476;2023-11-18T04:17:37;4.60;;;4.10;;
12165;SDS011;6146;48.128;11.476;2023-11-18T04:20:03;5.20;;;4.70;;
12165;SDS011;6146;48.128;11.476;2023-11-18T04:22:37;5.57;;;4.70;;
12165;SDS011;6146;48.128;11.476;2023-11-18T04:25:07;5.37;;;4.77;;
12165;SDS011;6146;48.128;11.476;2023-11-18T04:27:33;4.80;;;4.30;;
12165;SDS011;6146;48.128;11.476;2023-11-18T04:29:59;4.93;;;4.43;;
12165;SDS011;6146;48.128;11.476;2023-11-18T04:32:24;5.50;;;4.90;;
12165;SDS011;6146;48.128;11.476;2023-11-18T04:34:50;5.37;;;4.87;;
12165;SDS011;6146;48.128;11.476;2023-11-18T04:37:16;5.47;;;4.50;;
12165;SDS011;6146;48.128;11.476;2023-11-18T04:39:42;6.07;;;5.43;;
12165;SDS011;6146;48.128;11.476;2023-11-18T04:42:08;5.47;;;4.97;;
12165;SDS011;6146;48.128;11.476;2023-11-18T04:44:33;4.73;;;4.23;;
12165;SDS011;6146;48.128;11.476;2023-11-18T04:46:59;4.90;;;4.30;;
12165;SDS011;6146;48.128;11.476;2023-11-18T04:49:26;8.47;;;4.37;;
12165;SDS011;6146;48.128;11.476;2023-11-18T04:51:51;5.60;;;4.87;;
12165;SDS011;6146;48.128;11.476;2023-11-18T04:54:17;5.60;;;4.50;;
12165;SDS011;6146;48.128;11.476;2023-11-18T04:56:44;5.47;;;4.50;;
12165;SDS011;6146;48.128;11.476;2023-11-18T04:59:10;5.10;;;4.37;;
12165;SDS011;6146;48.128;11.476;2023-11-18T05:01:35;5.27;;;4.77;;
12165;SDS011;6146;48.128;11.476;2023-11-18T05:04:02;5.87;;;5.07;;
12165;SDS011;6146;48.128;11.476;2023-11-18T05:06:29;5.93;;;4.63;;
12165;SDS011;6146;48.128;11.476;2023-11-18T05:08:54;5.67;;;4.60;;
12165;SDS011;6146;48.128;11.476;2023-11-18T05:11:20;5.23;;;4.73;;
12165;SDS011;6146;48.128;11.476;2023-11-18T05:13:45;5.50;;;4.87;;
12165;SDS011;6146;48.128;11.476;2023-11-18T05:16:11;5.47;;;4.80;;
12165;SDS011;6146;48.128;11.476;2023-11-18T05:18:36;6.17;;;5.33;;
12165;SDS011;6146;48.128;11.476;2023-11-18T05:21:03;5.50;;;4.83;;
12165;SDS011;6146;48.128;11.476;2023-11-18T05:23:35;5.30;;;4.60;;
12165;SDS011;6146;48.128;11.476;2023-11-18T05:26:01;5.43;;;4.90;;
12165;SDS011;6146;48.128;11.476;2023-11-18T05:28:30;6.80;;;5.13;;
12165;SDS011;6146;48.128;11.476;2023-11-18T05:30:56;5.80;;;5.20;;
12165;SDS011;6146;48.128;11.476;2023-11-18T05:33:23;5.73;;;4.93;;
12165;SDS011;6146;48.128;11.476;2023-11-18T05:35:48;6.40;;;5.17;;
12165;SDS011;6146;48.128;11.476;2023-11-18T05:38:18;6.33;;;5.20;;
12165;SDS011;6146;48.128;11.476;2023-11-18T05:40:46;6.37;;;5.00;;
12165;SDS011;6146;48.128;11.476;2023-11-18T05:43:21;6.03;;;5.00;;
12165;SDS011;6146;48.128;11.476;2023-11-18T05:45:54;6.33;;;4.93;;
12165;SDS011;6146;48.128;11.476;2023-11-18T05:48:38;6.70;;;5.03;;
12165;SDS011;6146;48.128;11.476;2023-11-18T05:51:04;5.73;;;4.47;;
12165;SDS011;6146;48.128;11.476;2023-11-18T05:53:30;4.57;;;4.10;;
12165;SDS011;6146;48.128;11.476;2023-11-18T05:55:56;5.93;;;4.80;;
12165;SDS011;6146;48.128;11.476;2023-11-18T05:58:21;5.40;;;4.90;;
12165;SDS011;6146;48.128;11.476;2023-11-18T06:00:47;5.90;;;4.67;;
12165;SDS011;6146;48.128;11.476;2023-11-18T06:03:12;6.03;;;4.90;;
12165;SDS011;6146;48.128;11.476;2023-11-18T06:05:38;5.87;;;5.30;;
12165;SDS011;6146;48.128;11.476;2023-11-18T06:08:04;6.83;;;4.53;;
12165;SDS011;6146;48.128;11.476;2023-11-18T06:10:30;4.90;;;4.40;;
12165;SDS011;6146;48.128;11.476;2023-11-18T06:12:59;5.23;;;4.73;;
12165;SDS011;6146;48.128;11.476;2023-11-18T06:15:25;5.43;;;4.53;;
12165;SDS011;6146;48.128;11.476;2023-11-18T06:17:52;4.90;;;4.40;;
12165;SDS011;6146;48.128;11.476;2023-11-18T06:20:20;5.53;;;4.60;;
12165;SDS011;6146;48.128;11.476;2023-11-18T06:22:48;5.23;;;4.60;;
12165;SDS011;6146;48.128;11.476;2023-11-18T06:25:14;5.10;;;4.60;;
12165;SDS011;6146;48.128;11.476;2023-11-18T06:27:42;5.13;;;4.23;;
12165;SDS011;6146;48.128;11.476;2023-11-18T06:30:11;5.20;;;4.03;;
12165;SDS011;6146;48.128;11.476;2023-11-18T06:32:37;5.43;;;4.57;;
12165;SDS011;6146;48.128;11.476;2023-11-18T06:35:04;5.00;;;4.33;;
12165;SDS011;6146;48.128;11.476;2023-11-18T06:37:33;5.50;;;4.23;;
12165;SDS011;6146;48.128;11.476;2023-11-18T06:39:59;4.93;;;4.00;;
12165;SDS011;6146;48.128;11.476;2023-11-18T06:42:25;4.67;;;4.27;;
12165;SDS011;6146;48.128;11.476;2023-11-18T06:44:50;5.37;;;4.20;;
12165;SDS011;6146;48.128;11.476;2023-11-18T06:47:16;5.87;;;4.07;;
12165;SDS011;6146;48.128;11.476;2023-11-18T06:49:44;4.63;;;4.23;;
12165;SDS011;6146;48.128;11.476;2023-11-18T06:52:09;4.87;;;4.10;;
12165;SDS011;6146;48.128;11.476;2023-11-18T06:54:37;5.80;;;4.57;;
12165;SDS011;6146;48.128;11.476;2023-11-18T06:57:06;5.10;;;4.27;;
12165;SDS011;6146;48.128;11.476;2023-11-18T06:59:32;5.07;;;4.30;;
12165;SDS011;6146;48.128;11.476;2023-11-18T07:01:57;5.00;;;3.90;;
12165;SDS011;6146;48.128;11.476;2023-11-18T07:04:24;4.50;;;4.00;;
12165;SDS011;6146;48.128;11.476;2023-11-18T07:06:50;5.70;;;4.30;;
12165;SDS011;6146;48.128;11.476;2023-11-18T07:09:15;6.93;;;4.43;;
12165;SDS011;6146;48.128;11.476;2023-11-18T07:11:46;5.20;;;4.37;;
12165;SDS011;6146;48.128;11.476;2023-11-18T07:14:12;5.03;;;4.50;;
12165;SDS011;6146;48.128;11.476;2023-11-18T07:16:40;5.73;;;4.10;;
12165;SDS011;6146;48.128;11.476;2023-11-18T07:19:06;4.13;;;3.73;;
12165;SDS011;6146;48.128;11.476;2023-11-18T07:21:33;6.00;;;4.53;;
12165;SDS011;6146;48.128;11.476;2023-11-18T07:23:59;5.17;;;4.67;;
12165;SDS011;6146;48.128;11.476;2023-11-18T07:26:25;5.47;;;4.63;;
12165;SDS011;6146;48.128;11.476;2023-11-18T07:28:51;4.77;;;4.27;;
12165;SDS011;6146;48.128;11.476;2023-11-18T07:31:17;4.40;;;4.00;;
12165;SDS011;6146;48.128;11.476;2023-11-18T07:33:44;5.67;;;4.13;;
12165;SDS011;6146;48.128;11.476;2023-11-18T07:36:14;5.20;;;4.17;;
12165;SDS011;6146;48.128;11.476;2023-11-18T07:38:44;4.93;;;4.43;;
12165;SDS011;6146;48.128;11.476;2023-11-18T07:41:15;4.80;;;4.10;;
12165;SDS011;6146;48.128;11.476;2023-11-18T07:43:51;4.67;;;4.13;;
12165;SDS011;6146;48.128;11.476;2023-11-18T07:46:19;5.10;;;4.20;;
12165;SDS011;6146;48.128;11.476;2023-11-18T07:48:47;5.27;;;4.07;;
12165;SDS011;6146;48.128;11.476;2023-11-18T07:51:17;4.47;;;4.03;;
12165;SDS011;6146;48.128;11.476;2023-11-18T07:53:43;4.67;;;4.03;;
12165;SDS011;6146;48.128;11.476;2023-11-18T07:56:09;5.00;;;4.43;;
12165;SDS011;6146;48.128;11.476;2023-11-18T07:58:37;5.33;;;4.20;;
12165;SDS011;6146;48.128;11.476;2023-11-18T08:01:03;8.03;;;4.83;;
12165;SDS011;6146;48.128;11.476;2023-11-18T08:03:32;5.30;;;4.77;;
12165;SDS011;6146;48.128;11.476;2023-11-18T08:06:02;6.20;;;4.10;;
12165;SDS011;6146;48.128;11.476;2023-11-18T08:08:31;4.97;;;3.67;;
12165;SDS011;6146;48.128;11.476;2023-11-18T08:10:57;4.17;;;3.77;;
12165;SDS011;6146;48.128;11.476;2023-11-18T08:13:23;5.47;;;4.27;;
12165;SDS011;6146;48.128;11.476;2023-11-18T08:15:49;4.63;;;4.17;;
12165;SDS011;6146;48.128;11.476;2023-11-18T08:18:14;68.70;;;20.57;;
12165;SDS011;6146;48.128;11.476;2023-11-18T08:20:40;5.70;;;4.60;;
12165;SDS011;6146;48.128;11.476;2023-11-18T08:23:06;5.03;;;4.20;;
12165;SDS011;6146;48.128;11.476;2023-11-18T08:25:32;4.67;;;4.17;;
12165;SDS011;6146;48.128;11.476;2023-11-18T08:28:05;4.00;;;3.60;;
12165;SDS011;6146;48.128;11.476;2023-11-18T08:30:32;3.90;;;3.50;;
12165;SDS011;6146;48.128;11.476;2023-11-18T08:33:00;3.37;;;2.97;;
12165;SDS011;6146;48.128;11.476;2023-11-18T08:35:28;3.47;;;3.17;;
12165;SDS011;6146;48.128;11.476;2023-11-18T08:37:54;4.00;;;3.03;;
12165;SDS011;6146;48.128;11.476;2023-11-18T08:40:19;4.27;;;3.00;;
12165;SDS011;6146;48.128;11.476;2023-11-18T08:42:50;3.63;;;3.20;;
12165;SDS011;6146;48.128;11.476;2023-11-18T08:45:17;3.43;;;2.97;;
12165;SDS011;6146;48.128;11.476;2023-11-18T08:47:44;3.87;;;3.10;;
12165;SDS011;6146;48.128;11.476;2023-11-18T08:50:11;4.07;;;3.10;;
12165;SDS011;6146;48.128;11.476;2023-11-18T08:52:38;7.30;;;3.93;;
12165;SDS011;6146;48.128;11.476;2023-11-18T08:55:08;4.30;;;3.20;;
12165;SDS011;6146;48.128;11.476;2023-11-18T08:57:43;4.67;;;2.97;;
12165;SDS011;6146;48.128;11.476;2023-11-18T09:00:23;4.43;;;3.17;;
12165;SDS011;6146;48.128;11.476;2023-11-18T09:03:09;4.13;;;3.23;;
12165;SDS011;6146;48.128;11.476;2023-11-18T09:05:42;3.47;;;2.90;;
12165;SDS011;6146;48.128;11.476;2023-11-18T09:08:22;3.30;;;2.67;;
12165;SDS011;6146;48.128;11.476;2023-11-18T09:11:10;3.60;;;3.00;;
12165;SDS011;6146;48.128;11.476;2023-11-18T09:13:42;3.03;;;2.73;;
12165;SDS011;6146;48.128;11.476;2023-11-18T09:16:10;3.40;;;3.10;;
12165;SDS011;6146;48.128;11.476;2023-11-18T09:18:38;3.13;;;2.83;;
12165;SDS011;6146;48.128;11.476;2023-11-18T09:21:06;3.77;;;3.13;;
12165;SDS011;6146;48.128;11.476;2023-11-18T09:23:33;3.70;;;3.40;;
12165;SDS011;6146;48.128;11.476;2023-11-18T09:25:59;3.37;;;3.03;;
12165;SDS011;6146;48.128;11.476;2023-11-18T09:28:27;2.87;;;2.50;;
12165;SDS011;6146;48.128;11.476;2023-11-18T09:30:56;3.60;;;3.13;;
12165;SDS011;6146;48.128;11.476;2023-11-18T09:33:25;3.33;;;3.03;;
12165;SDS011;6146;48.128;11.476;2023-11-18T09:35:57;3.43;;;3.00;;
12165;SDS011;6146;48.128;11.476;2023-11-18T09:38:26;3.43;;;2.90;;
12165;SDS011;6146;48.128;11.476;2023-11-18T09:40:56;2.60;;;2.40;;
12165;SDS011;6146;48.128;11.476;2023-11-18T09:43:27;2.60;;;2.40;;
12165;SDS011;6146;48.128;11.476;2023-11-18T09:48:47;2.27;;;1.87;;
12165;SDS011;6146;48.128;11.476;2023-11-18T09:51:19;2.17;;;1.97;;
12165;SDS011;6146;48.128;11.476;2023-11-18T09:53:49;2.47;;;1.80;;
12165;SDS011;6146;48.128;11.476;2023-11-18T09:56:31;1.80;;;1.70;;
12165;SDS011;6146;48.128;11.476;2023-11-18T10:01:59;1.53;;;1.43;;
12165;SDS011;6146;48.128;11.476;2023-11-18T10:04:28;2.00;;;1.60;;
12165;SDS011;6146;48.128;11.476;2023-11-18T10:06:56;2.23;;;1.60;;
12165;SDS011;6146;48.128;11.476;2023-11-18T10:09:25;1.80;;;1.70;;
12165;SDS011;6146;48.128;11.476;2023-11-18T10:12:02;2.07;;;1.60;;
12165;SDS011;6146;48.128;11.476;2023-11-18T10:14:34;2.27;;;1.70;;
12165;SDS011;6146;48.128;11.476;2023-11-18T10:17:04;2.37;;;1.80;;
12165;SDS011;6146;48.128;11.476;2023-11-18T10:22:37;2.27;;;1.77;;
12165;SDS011;6146;48.128;11.476;2023-11-18T10:25:03;1.90;;;1.70;;
12165;SDS011;6146;48.128;11.476;2023-11-18T10:27:31;1.97;;;1.80;;
12165;SDS011;6146;48.128;11.476;2023-11-18T10:29:57;1.80;;;1.60;;
12165;SDS011;6146;48.128;11.476;2023-11-18T10:32:23;1.70;;;1.50;;
12165;SDS011;6146;48.128;11.476;2023-11-18T10:34:56;1.90;;;1.63;;
12165;SDS011;6146;48.128;11.476;2023-11-18T10:37:22;1.80;;;1.50;;
12165;SDS011;6146;48.128;11.476;2023-11-18T10:39:48;1.90;;;1.80;;
12165;SDS011;6146;48.128;11.476;2023-11-18T10:42:16;2.00;;;1.73;;
12165;SDS011;6146;48.128;11.476;2023-11-18T10:44:58;1.53;;;1.43;;
12165;SDS011;6146;48.128;11.476;2023-11-18T10:47:25;1.60;;;1.50;;
12165;SDS011;6146;48.128;11.476;2023-11-18T10:49:52;1.53;;;1.43;;
12165;SDS011;6146;48.128;11.476;2023-11-18T10:52:20;2.03;;;1.73;;
12165;SDS011;6146;48.128;11.476;2023-11-18T10:54:51;1.50;;;1.40;;
12165;SDS011;6146;48.128;11.476;2023-11-18T10:57:19;1.60;;;1.50;;
12165;SDS011;6146;48.128;11.476;2023-11-18T10:59:58;2.93;;;2.03;;
12165;SDS011;6146;48.128;11.476;2023-11-18T11:02:25;2.00;;;1.73;;
12165;SDS011;6146;48.128;11.476;2023-11-18T11:04:50;1.80;;;1.70;;
12165;SDS011;6146;48.128;11.476;2023-11-18T11:07:17;5.13;;;3.53;;
12165;SDS011;6146;48.128;11.476;2023-11-18T11:09:48;3.67;;;2.30;;
12165;SDS011;6146;48.128;11.476;2023-11-18T11:12:21;2.37;;;2.03;;
12165;SDS011;6146;48.128;11.476;2023-11-18T11:14:56;2.67;;;2.47;;
12165;SDS011;6146;48.128;11.476;2023-11-18T11:17:24;2.30;;;2.10;;
12165;SDS011;6146;48.128;11.476;2023-11-18T11:22:44;5.03;;;2.80;;
12165;SDS011;6146;48.128;11.476;2023-11-18T11:28:24;2.23;;;2.00;;
12165;SDS011;6146;48.128;11.476;2023-11-18T11:36:05;3.63;;;1.93;;
12165;SDS011;6146;48.128;11.476;2023-11-18T11:38:36;2.50;;;1.70;;
12165;SDS011;6146;48.128;11.476;2023-11-18T11:41:02;2.70;;;2.00;;
12165;SDS011;6146;48.128;11.476;2023-11-18T11:43:30;2.50;;;1.60;;
12165;SDS011;6146;48.128;11.476;2023-11-18T11:45:59;2.43;;;1.70;;
12165;SDS011;6146;48.128;11.476;2023-11-18T11:48:28;2.30;;;1.90;;
12165;SDS011;6146;48.128;11.476;2023-11-18T11:53:39;2.63;;;1.90;;
12165;SDS011;6146;48.128;11.476;2023-11-18T11:56:10;2.93;;;2.30;;
12165;SDS011;6146;48.128;11.476;2023-11-18T11:58:39;3.27;;;2.23;;
12165;SDS011;6146;48.128;11.476;2023-11-18T12:01:27;2.13;;;1.93;;
12165;SDS011;6146;48.128;11.476;2023-11-18T12:04:08;2.23;;;1.60;;
12165;SDS011;6146;48.128;11.476;2023-11-18T12:06:42;3.87;;;2.20;;
12165;SDS011;6146;48.128;11.476;2023-11-18T12:09:09;2.20;;;2.00;;
12165;SDS011;6146;48.128;11.476;2023-11-18T12:11:35;1.90;;;1.70;;
12165;SDS011;6146;48.128;11.476;2023-11-18T12:14:07;1.70;;;1.60;;
12165;SDS011;6146;48.128;11.476;2023-11-18T12:19:34;1.73;;;1.50;;
12165;SDS011;6146;48.128;11.476;2023-11-18T12:22:12;1.43;;;1.33;;
12165;SDS011;6146;48.128;11.476;2023-11-18T12:24:42;1.93;;;1.50;;
12165;SDS011;6146;48.128;11.476;2023-11-18T12:27:09;1.60;;;1.50;;
12165;SDS011;6146;48.128;11.476;2023-11-18T12:29:41;1.90;;;1.30;;
12165;SDS011;6146;48.128;11.476;2023-11-18T12:32:10;2.20;;;1.80;;
12165;SDS011;6146;48.128;11.476;2023-11-18T12:34:51;1.73;;;1.50;;
12165;SDS011;6146;48.128;11.476;2023-11-18T12:37:54;1.63;;;1.37;;
12165;SDS011;6146;48.128;11.476;2023-11-18T12:43:15;4.30;;;2.50;;
12165;SDS011;6146;48.128;11.476;2023-11-18T12:48:18;4.27;;;2.73;;
12165;SDS011;6146;48.128;11.476;2023-11-18T12:50:51;1.83;;;1.63;;
12165;SDS011;6146;48.128;11.476;2023-11-18T12:53:20;1.70;;;1.43;;
12165;SDS011;6146;48.128;11.476;2023-11-18T12:55:49;3.03;;;1.53;;
12165;SDS011;6146;48.128;11.476;2023-11-18T12:58:15;1.83;;;1.60;;
12165;SDS011;6146;48.128;11.476;2023-11-18T13:00:43;2.40;;;1.80;;
12165;SDS011;6146;48.128;11.476;2023-11-18T13:03:10;2.13;;;1.43;;
12165;SDS011;6146;48.128;11.476;2023-11-18T13:05:36;1.80;;;1.30;;
12165;SDS011;6146;48.128;11.476;2023-11-18T13:08:02;1.90;;;1.40;;
12165;SDS011;6146;48.128;11.476;2023-11-18T13:10:28;2.03;;;1.50;;
12165;SDS011;6146;48.128;11.476;2023-11-18T13:12:54;2.77;;;1.57;;
12165;SDS011;6146;48.128;11.476;2023-11-18T13:15:19;2.50;;;1.13;;
12165;SDS011;6146;48.128;11.476;2023-11-18T13:20:25;1.60;;;1.40;;
12165;SDS011;6146;48.128;11.476;2023-11-18T13:22:51;2.30;;;1.50;;
12165;SDS011;6146;48.128;11.476;2023-11-18T13:25:18;1.87;;;1.33;;
12165;SDS011;6146;48.128;11.476;2023-11-18T13:27:43;1.83;;;1.10;;
12165;SDS011;6146;48.128;11.476;2023-11-18T13:30:10;1.63;;;1.30;;
12165;SDS011;6146;48.128;11.476;2023-11-18T13:32:41;1.50;;;1.40;;
12165;SDS011;6146;48.128;11.476;2023-11-18T13:35:08;1.00;;;1.00;;
12165;SDS011;6146;48.128;11.476;2023-11-18T13:37:33;1.80;;;1.30;;
12165;SDS011;6146;48.128;11.476;2023-11-18T13:39:59;1.80;;;1.47;;
12165;SDS011;6146;48.128;11.476;2023-11-18T13:42:26;1.33;;;1.23;;
12165;SDS011;6146;48.128;11.476;2023-11-18T13:44:59;2.40;;;2.13;;
12165;SDS011;6146;48.128;11.476;2023-11-18T13:47:28;3.80;;;1.60;;
12165;SDS011;6146;48.128;11.476;2023-11-18T13:49:54;2.43;;;1.40;;
12165;SDS011;6146;48.128;11.476;2023-11-18T13:52:19;2.60;;;1.60;;
12165;SDS011;6146;48.128;11.476;2023-11-18T13:54:49;3.33;;;1.83;;
12165;SDS011;6146;48.128;11.476;2023-11-18T13:57:20;1.77;;;1.50;;
12165;SDS011;6146;48.128;11.476;2023-11-18T13:59:48;2.17;;;1.77;;
12165;SDS011;6146;48.128;11.476;2023-11-18T14:02:15;1.67;;;1.57;;
12165;SDS011;6146;48.128;11.476;2023-11-18T14:04:41;1.97;;;1.77;;
12165;SDS011;6146;48.128;11.476;2023-11-18T14:07:13;2.43;;;2.20;;
12165;SDS011;6146;48.128;11.476;2023-11-18T14:09:42;3.90;;;2.77;;
12165;SDS011;6146;48.128;11.476;2023-11-18T14:12:11;5.93;;;3.40;;
12165;SDS011;6146;48.128;11.476;2023-11-18T14:14:38;3.70;;;2.10;;
12165;SDS011;6146;48.128;11.476;2023-11-18T14:17:04;3.40;;;2.13;;
12165;SDS011;6146;48.128;11.476;2023-11-18T14:19:31;2.63;;;1.60;;
12165;SDS011;6146;48.128;11.476;2023-11-18T14:22:00;2.00;;;1.80;;
12165;SDS011;6146;48.128;11.476;2023-11-18T14:24:25;2.23;;;1.50;;
12165;SDS011;6146;48.128;11.476;2023-11-18T14:26:52;2.23;;;1.60;;
12165;SDS011;6146;48.128;11.476;2023-11-18T14:29:18;2.33;;;1.60;;
12165;SDS011;6146;48.128;11.476;2023-11-18T14:31:44;2.57;;;1.93;;
12165;SDS011;6146;48.128;11.476;2023-11-18T14:34:10;2.97;;;1.70;;
12165;SDS011;6146;48.128;11.476;2023-11-18T14:36:36;3.17;;;1.90;;
12165;SDS011;6146;48.128;11.476;2023-11-18T14:39:02;3.03;;;1.90;;
12165;SDS011;6146;48.128;11.476;2023-11-18T14:41:28;3.43;;;2.00;;
12165;SDS011;6146;48.128;11.476;2023-11-18T14:43:55;3.07;;;2.03;;
12165;SDS011;6146;48.128;11.476;2023-11-18T14:46:22;2.93;;;2.40;;
12165;SDS011;6146;48.128;11.476;2023-11-18T14:48:48;3.70;;;2.17;;
12165;SDS011;6146;48.128;11.476;2023-11-18T14:51:15;3.90;;;2.70;;
12165;SDS011;6146;48.128;11.476;2023-11-18T14:53:41;4.57;;;2.50;;
12165;SDS011;6146;48.128;11.476;2023-11-18T14:56:08;2.73;;;2.37;;
12165;SDS011;6146;48.128;11.476;2023-11-18T14:58:34;3.00;;;2.27;;
12165;SDS011;6146;48.128;11.476;2023-11-18T15:01:02;2.53;;;1.80;;
12165;SDS011;6146;48.128;11.476;2023-11-18T15:03:28;3.60;;;2.13;;
12165;SDS011;6146;48.128;11.476;2023-11-18T15:05:56;1.70;;;1.60;;
12165;SDS011;6146;48.128;11.476;2023-11-18T15:08:21;2.93;;;2.10;;
12165;SDS011;6146;48.128;11.476;2023-11-18T15:10:47;1.60;;;1.50;;
12165;SDS011;6146;48.128;11.476;2023-11-18T15:13:12;1.87;;;1.77;;
12165;SDS011;6146;48.128;11.476;2023-11-18T15:15:40;3.47;;;2.10;;
12165;SDS011;6146;48.128;11.476;2023-11-18T15:18:07;5.03;;;2.03;;
12165;SDS011;6146;48.128;11.476;2023-11-18T15:20:34;2.73;;;1.93;;
12165;SDS011;6146;48.128;11.476;2023-11-18T15:23:01;3.10;;;2.43;;
12165;SDS011;6146;48.128;11.476;2023-11-18T15:25:27;5.23;;;3.03;;
12165;SDS011;6146;48.128;11.476;2023-11-18T15:27:52;10.20;;;6.40;;